createdAt,value
2017-09-15T00:08:38.379Z,10.79
2017-09-15T00:11:27.451Z,10.88
2017-09-15T00:14:24.591Z,10.92
2017-09-15T00:17:21.451Z,10.80
2017-09-15T00:20:20.524Z,10.88
2017-09-15T00:30:11.264Z,10.91
2017-09-15T00:33:00.270Z,10.81
2017-09-15T00:35:57.751Z,10.92
2017-09-15T00:38:55.656Z,10.93
2017-09-15T00:41:53.019Z,10.84
2017-09-15T00:44:50.871Z,10.74
2017-09-15T00:53:59.103Z,10.54
2017-09-15T00:56:48.279Z,10.49
2017-09-15T00:59:45.419Z,10.45
2017-09-15T01:02:43.386Z,10.41
2017-09-15T01:15:27.907Z,10.36
2017-09-15T01:18:17.696Z,10.32
2017-09-15T01:37:29.392Z,10.39
2017-09-15T01:57:05.543Z,10.26
2017-09-15T02:19:32.674Z,9.99
2017-09-15T02:41:59.208Z,9.87
2017-09-15T02:44:24.988Z,9.83
2017-09-15T02:47:14.576Z,9.81
2017-09-15T02:50:12.539Z,9.73
2017-09-15T03:06:02.943Z,9.85
2017-09-15T03:08:52.023Z,9.93
2017-09-15T03:11:49.446Z,9.91
2017-09-15T03:14:46.700Z,9.89
2017-09-15T03:17:43.862Z,9.87
2017-09-15T03:27:34.728Z,9.68
2017-09-15T03:47:17.194Z,9.48
2017-09-15T03:49:42.951Z,9.45
2017-09-15T04:09:36.356Z,9.27
2017-09-15T04:12:02.128Z,9.23
2017-09-15T04:31:56.343Z,8.61
2017-09-15T04:34:22.090Z,8.50
2017-09-15T04:56:48.218Z,8.53
2017-09-15T04:59:37.408Z,8.55
2017-09-15T05:18:49.190Z,7.99
2017-09-15T05:21:38.223Z,8.34
2017-09-15T05:24:35.592Z,8.37
2017-09-15T05:27:33.566Z,8.47
2017-09-15T05:30:30.757Z,8.50
2017-09-15T05:33:27.556Z,8.44
2017-09-15T05:36:24.456Z,8.43
2017-09-15T05:39:21.600Z,8.58
2017-09-15T05:58:32.771Z,9.07
2017-09-15T06:01:29.767Z,9.18
2017-09-15T06:03:55.542Z,9.34
2017-09-15T06:06:45.423Z,9.46
2017-09-15T06:09:42.295Z,9.18
2017-09-15T06:28:50.855Z,10.37
2017-09-15T06:48:03.274Z,10.51
2017-09-15T07:09:44.488Z,14.13
2017-09-15T07:12:10.268Z,13.84
2017-09-15T07:14:36.119Z,14.09
2017-09-15T07:17:01.915Z,14.50
2017-09-15T07:19:27.692Z,14.76
2017-09-15T07:21:53.467Z,14.50
2017-09-15T07:24:19.271Z,14.62
2017-09-15T07:26:45.072Z,14.84
2017-09-15T07:29:10.828Z,14.75
2017-09-15T07:31:36.594Z,14.60
2017-09-15T07:34:02.371Z,14.49
2017-09-15T07:36:28.151Z,14.01
2017-09-15T07:38:53.920Z,13.95
2017-09-15T07:41:19.724Z,13.67
2017-09-15T07:43:45.518Z,13.27
2017-09-15T07:46:11.308Z,13.91
2017-09-15T07:48:37.094Z,13.81
2017-09-15T07:51:02.838Z,13.82
2017-09-15T07:53:28.616Z,14.65
2017-09-15T07:55:54.568Z,15.35
2017-09-15T07:58:20.354Z,16.34
2017-09-15T08:00:46.163Z,16.07
2017-09-15T08:03:11.907Z,17.37
2017-09-15T08:05:37.695Z,16.91
2017-09-15T08:08:03.488Z,17.08
2017-09-15T08:10:29.284Z,17.25
2017-09-15T08:12:55.046Z,17.39
2017-09-15T08:15:20.828Z,17.55
2017-09-15T08:17:46.590Z,16.89
2017-09-15T08:20:13.219Z,16.98
2017-09-15T08:22:39.004Z,17.37
2017-09-15T08:25:04.856Z,17.18
2017-09-15T08:27:30.598Z,17.13
2017-09-15T08:29:56.371Z,17.54
2017-09-15T08:32:22.195Z,17.93
2017-09-15T08:34:47.983Z,16.05
2017-09-15T08:37:13.726Z,16.62
2017-09-15T08:39:39.526Z,16.73
2017-09-15T08:42:05.315Z,17.04
2017-09-15T08:44:31.068Z,15.87
2017-09-15T08:46:56.843Z,15.90
2017-09-15T08:49:22.611Z,15.73
2017-09-15T08:51:48.394Z,15.93
2017-09-15T08:54:14.148Z,15.87
2017-09-15T08:56:39.910Z,16.44
2017-09-15T08:59:05.704Z,15.82
2017-09-15T09:01:31.454Z,16.57
2017-09-15T09:03:57.226Z,16.57
2017-09-15T09:06:23.028Z,16.54
2017-09-15T09:08:48.824Z,16.22
2017-09-15T09:11:14.616Z,16.52
2017-09-15T09:13:40.420Z,16.83
2017-09-15T09:16:06.178Z,16.65
2017-09-15T09:18:32.027Z,16.91
2017-09-15T09:20:57.829Z,17.00
2017-09-15T09:23:23.631Z,17.15
2017-09-15T09:25:49.381Z,17.32
2017-09-15T09:28:15.186Z,17.36
2017-09-15T09:30:40.969Z,17.05
2017-09-15T09:33:06.732Z,17.16
2017-09-15T09:35:32.510Z,17.33
2017-09-15T09:37:58.282Z,16.94
2017-09-15T09:40:24.039Z,16.54
2017-09-15T09:42:49.842Z,16.05
2017-09-15T09:45:15.699Z,16.17
2017-09-15T09:47:41.559Z,15.92
2017-09-15T09:50:07.346Z,15.88
2017-09-15T09:52:33.146Z,16.02
2017-09-15T09:54:58.911Z,15.79
2017-09-15T09:57:24.683Z,15.28
2017-09-15T09:59:50.482Z,15.61
2017-09-15T10:02:16.299Z,15.71
2017-09-15T10:04:42.082Z,16.48
2017-09-15T10:07:07.846Z,16.20
2017-09-15T10:09:33.691Z,15.98
2017-09-15T10:11:59.524Z,16.18
2017-09-15T10:14:25.310Z,16.16
2017-09-15T10:16:51.089Z,16.32
2017-09-15T10:19:16.847Z,16.28
2017-09-15T10:21:42.664Z,16.33
2017-09-15T10:24:08.410Z,16.91
2017-09-15T10:26:34.242Z,16.90
2017-09-15T10:29:00.059Z,16.86
2017-09-15T10:31:25.818Z,16.80
2017-09-15T10:33:51.571Z,17.83
2017-09-15T10:36:17.379Z,19.52
2017-09-15T10:38:43.136Z,18.24
2017-09-15T10:41:08.892Z,16.61
2017-09-15T10:43:34.695Z,16.29
2017-09-15T10:46:00.471Z,15.90
2017-09-15T10:48:26.251Z,16.16
2017-09-15T10:50:51.991Z,16.24
2017-09-15T10:53:17.790Z,15.95
2017-09-15T10:55:43.952Z,16.10
2017-09-15T10:58:15.970Z,16.27
2017-09-15T11:00:41.769Z,19.63
2017-09-15T11:03:07.549Z,20.57
2017-09-15T11:05:33.304Z,20.86
2017-09-15T11:07:59.098Z,21.71
2017-09-15T11:10:24.871Z,21.84
2017-09-15T11:12:50.640Z,20.41
2017-09-15T11:15:16.422Z,20.56
2017-09-15T11:17:42.184Z,18.70
2017-09-15T11:20:07.982Z,18.63
2017-09-15T11:22:33.788Z,18.86
2017-09-15T11:24:59.543Z,18.81
2017-09-15T11:27:25.318Z,20.17
2017-09-15T11:29:51.079Z,18.57
2017-09-15T11:32:16.871Z,17.92
2017-09-15T11:34:42.662Z,18.01
2017-09-15T11:37:08.699Z,17.91
2017-09-15T11:39:34.524Z,17.62
2017-09-15T11:42:00.294Z,17.40
2017-09-15T11:44:26.055Z,18.16
2017-09-15T11:46:51.917Z,21.06
2017-09-15T11:49:17.680Z,21.82
2017-09-15T11:51:43.526Z,23.17
2017-09-15T11:54:09.403Z,23.45
2017-09-15T11:56:35.196Z,23.02
2017-09-15T11:59:00.960Z,23.48
2017-09-15T12:01:26.727Z,21.80
2017-09-15T12:03:52.524Z,22.70
2017-09-15T12:06:18.270Z,23.70
2017-09-15T12:08:44.016Z,22.67
2017-09-15T12:11:09.798Z,21.41
2017-09-15T12:13:36.356Z,22.23
2017-09-15T12:16:02.169Z,23.82
2017-09-15T12:18:27.926Z,24.38
2017-09-15T12:20:53.764Z,24.89
2017-09-15T12:23:19.651Z,21.93
2017-09-15T12:25:45.415Z,19.82
2017-09-15T12:28:11.240Z,18.97
2017-09-15T12:30:37.108Z,19.12
2017-09-15T12:33:02.906Z,19.20
2017-09-15T12:35:28.772Z,18.78
2017-09-15T12:37:54.548Z,18.32
2017-09-15T12:40:20.390Z,18.73
2017-09-15T12:42:46.168Z,17.82
2017-09-15T12:45:11.931Z,18.25
2017-09-15T12:47:37.700Z,17.94
2017-09-15T12:50:03.520Z,20.61
2017-09-15T12:52:29.296Z,21.26
2017-09-15T12:54:55.109Z,21.60
2017-09-15T12:57:20.894Z,21.28
2017-09-15T12:59:46.687Z,20.19
2017-09-15T13:02:12.515Z,21.40
2017-09-15T13:04:38.304Z,21.33
2017-09-15T13:07:04.059Z,22.04
2017-09-15T13:09:29.816Z,22.02
2017-09-15T13:11:55.627Z,22.12
2017-09-15T13:14:21.392Z,21.94
2017-09-15T13:16:47.178Z,23.71
2017-09-15T13:19:12.939Z,23.16
2017-09-15T13:21:38.695Z,23.06
2017-09-15T13:24:04.488Z,23.38
2017-09-15T13:26:30.243Z,23.45
2017-09-15T13:28:56.064Z,20.96
2017-09-15T13:31:21.850Z,20.09
2017-09-15T13:33:47.607Z,19.59
2017-09-15T13:36:13.355Z,21.90
2017-09-15T13:38:39.150Z,22.53
2017-09-15T13:41:04.896Z,21.13
2017-09-15T13:43:30.676Z,19.75
2017-09-15T13:45:56.492Z,18.50
2017-09-15T13:48:22.256Z,18.20
2017-09-15T13:50:48.019Z,18.14
2017-09-15T13:53:13.806Z,18.21
2017-09-15T13:55:40.344Z,18.04
2017-09-15T13:58:06.133Z,17.76
2017-09-15T14:00:32.006Z,17.53
2017-09-15T14:02:57.784Z,17.18
2017-09-15T14:05:23.531Z,17.04
2017-09-15T14:07:49.351Z,16.69
2017-09-15T14:10:15.127Z,16.25
2017-09-15T14:12:41.003Z,16.11
2017-09-15T14:15:06.803Z,15.65
2017-09-15T14:17:32.614Z,15.42
2017-09-15T14:19:58.362Z,15.06
2017-09-15T14:22:24.148Z,14.87
2017-09-15T14:24:49.894Z,14.88
2017-09-15T14:27:15.769Z,14.94
2017-09-15T14:29:41.554Z,14.90
2017-09-15T14:32:07.394Z,15.36
2017-09-15T14:34:33.189Z,15.32
2017-09-15T14:36:58.963Z,15.65
2017-09-15T14:39:24.746Z,15.77
2017-09-15T14:41:50.538Z,17.33
2017-09-15T14:44:16.301Z,17.44
2017-09-15T14:46:42.107Z,17.32
2017-09-15T14:49:07.883Z,17.10
2017-09-15T14:51:33.669Z,17.79
2017-09-15T14:53:59.464Z,18.41
2017-09-15T14:56:25.217Z,18.05
2017-09-15T14:58:51.003Z,18.31
2017-09-15T15:01:16.810Z,19.25
2017-09-15T15:03:42.571Z,18.69
2017-09-15T15:06:08.370Z,18.75
2017-09-15T15:08:34.175Z,18.62
2017-09-15T15:10:59.926Z,19.44
2017-09-15T15:13:25.703Z,20.30
2017-09-15T15:15:51.491Z,20.23
2017-09-15T15:18:17.242Z,19.97
2017-09-15T15:20:43.035Z,19.63
2017-09-15T15:23:08.839Z,19.18
2017-09-15T15:25:34.619Z,19.72
2017-09-15T15:28:00.371Z,20.62
2017-09-15T15:30:26.132Z,20.54
2017-09-15T15:32:51.928Z,21.11
2017-09-15T15:35:17.734Z,20.87
2017-09-15T15:37:43.513Z,21.24
2017-09-15T15:40:09.267Z,19.39
2017-09-15T15:42:35.065Z,18.73
2017-09-15T15:45:00.832Z,17.77
2017-09-15T15:47:26.618Z,18.51
2017-09-15T15:49:52.435Z,17.42
2017-09-15T15:52:18.206Z,17.06
2017-09-15T15:54:43.967Z,19.50
2017-09-15T15:57:09.763Z,18.86
2017-09-15T15:59:35.516Z,17.94
2017-09-15T16:02:01.265Z,18.05
2017-09-15T16:04:27.030Z,17.63
2017-09-15T16:06:52.804Z,17.30
2017-09-15T16:09:18.602Z,17.20
2017-09-15T16:11:44.342Z,17.27
2017-09-15T16:14:10.107Z,16.49
2017-09-15T16:16:35.890Z,17.14
2017-09-15T16:19:01.654Z,17.17
2017-09-15T16:21:27.462Z,17.18
2017-09-15T16:23:53.218Z,17.01
2017-09-15T16:26:18.986Z,17.21
2017-09-15T16:28:44.795Z,16.90
2017-09-15T16:31:10.570Z,16.81
2017-09-15T16:33:36.339Z,16.54
2017-09-15T16:36:02.167Z,16.62
2017-09-15T16:38:34.078Z,16.42
2017-09-15T16:41:05.906Z,16.34
2017-09-15T16:43:37.739Z,16.39
2017-09-15T16:46:09.659Z,16.13
2017-09-15T16:48:41.547Z,16.03
2017-09-15T16:51:07.327Z,16.00
2017-09-15T16:53:33.114Z,15.83
2017-09-15T16:55:59.382Z,15.58
2017-09-15T16:58:25.175Z,15.47
2017-09-15T17:00:50.935Z,15.49
2017-09-15T17:03:16.719Z,15.43
2017-09-15T17:05:42.505Z,15.37
2017-09-15T17:08:08.266Z,15.23
2017-09-15T17:10:34.043Z,15.21
2017-09-15T17:12:59.818Z,15.11
2017-09-15T17:15:25.595Z,14.94
2017-09-15T17:17:51.339Z,14.96
2017-09-15T17:20:17.140Z,14.80
2017-09-15T17:22:42.903Z,14.66
2017-09-15T17:25:08.711Z,14.73
2017-09-15T17:27:34.484Z,14.53
2017-09-15T17:30:00.250Z,14.49
2017-09-15T17:32:26.047Z,14.15
2017-09-15T17:34:51.836Z,14.27
2017-09-15T17:37:17.578Z,14.18
2017-09-15T17:39:43.345Z,14.13
2017-09-15T17:42:09.143Z,13.77
2017-09-15T17:44:34.896Z,13.84
2017-09-15T17:47:00.675Z,13.97
2017-09-15T17:49:26.477Z,13.88
2017-09-15T17:51:52.247Z,13.90
2017-09-15T17:54:17.998Z,13.87
2017-09-15T17:56:43.788Z,13.83
2017-09-15T17:59:09.635Z,13.71
2017-09-15T18:01:35.430Z,13.53
2017-09-15T18:04:01.199Z,13.68
2017-09-15T18:06:26.946Z,13.55
2017-09-15T18:08:52.757Z,13.45
2017-09-15T18:11:18.584Z,13.38
2017-09-15T18:13:44.355Z,12.97
2017-09-15T18:16:10.140Z,12.80
2017-09-15T18:18:35.964Z,12.61
2017-09-15T18:21:01.713Z,12.69
2017-09-15T18:23:27.480Z,12.67
2017-09-15T18:25:53.282Z,12.68
2017-09-15T18:28:19.084Z,12.72
2017-09-15T18:30:44.864Z,12.59
2017-09-15T18:33:10.660Z,12.35
2017-09-15T18:35:36.427Z,12.30
2017-09-15T18:38:02.178Z,12.19
2017-09-15T18:40:27.991Z,12.24
2017-09-15T18:42:53.754Z,12.08
2017-09-15T18:45:19.639Z,11.93
2017-09-15T18:47:45.426Z,12.08
2017-09-15T18:50:11.896Z,12.18
2017-09-15T18:52:37.682Z,12.04
2017-09-15T18:55:03.471Z,11.61
2017-09-15T18:57:29.228Z,12.04
2017-09-15T18:59:55.163Z,11.98
2017-09-15T19:02:20.931Z,11.75
2017-09-15T19:04:46.720Z,11.98
2017-09-15T19:07:12.479Z,11.78
2017-09-15T19:09:38.314Z,11.75
2017-09-15T19:12:04.149Z,11.65
2017-09-15T19:14:29.905Z,11.74
2017-09-15T19:16:55.696Z,11.62
2017-09-15T19:19:21.526Z,11.57
2017-09-15T19:21:47.328Z,10.98
2017-09-15T19:24:13.115Z,11.23
2017-09-15T19:29:18.048Z,11.09
2017-09-15T19:31:43.826Z,10.99
2017-09-15T19:34:09.628Z,11.02
2017-09-15T19:36:35.384Z,11.12
2017-09-15T19:39:01.175Z,10.99
2017-09-15T19:41:29.084Z,11.09
2017-09-15T19:43:54.883Z,11.00
2017-09-15T19:46:20.635Z,11.08
2017-09-15T19:48:46.378Z,11.05
2017-09-15T19:51:12.746Z,11.11
2017-09-15T19:53:38.571Z,10.89
2017-09-15T19:56:05.184Z,11.06
2017-09-15T19:58:30.954Z,11.14
2017-09-15T20:00:57.200Z,10.99
2017-09-15T20:03:23.069Z,11.09
2017-09-15T20:05:48.840Z,11.17
2017-09-15T20:08:14.604Z,11.21
2017-09-15T20:10:40.388Z,11.24
2017-09-15T20:13:06.211Z,11.10
2017-09-15T20:15:31.987Z,11.02
2017-09-15T20:17:57.798Z,11.06
2017-09-15T20:20:23.561Z,10.98
2017-09-15T20:22:49.347Z,10.85
2017-09-15T20:25:15.219Z,10.54
2017-09-15T20:27:41.027Z,10.65
2017-09-15T20:30:06.850Z,10.71
2017-09-15T20:32:32.596Z,10.73
2017-09-15T20:34:58.425Z,10.64
2017-09-15T20:37:24.236Z,10.68
2017-09-15T20:39:50.051Z,10.48
2017-09-15T20:42:15.902Z,10.46
2017-09-15T20:44:41.663Z,10.09
2017-09-15T20:47:07.410Z,10.16
2017-09-15T20:49:33.221Z,10.20
2017-09-15T20:51:59.118Z,10.12
2017-09-15T20:54:24.916Z,9.91
2017-09-15T20:56:50.692Z,9.82
2017-09-15T20:59:16.458Z,9.88
2017-09-15T21:01:42.263Z,10.07
2017-09-15T21:04:08.112Z,9.99
2017-09-15T21:06:33.880Z,9.79
2017-09-15T21:08:59.667Z,9.95
2017-09-15T21:11:25.424Z,9.80
2017-09-15T21:13:51.305Z,9.79
2017-09-15T21:16:17.081Z,9.56
2017-09-15T21:18:42.907Z,9.67
2017-09-15T21:21:08.680Z,9.65
2017-09-15T21:23:34.455Z,9.70
2017-09-15T21:26:00.251Z,9.70
2017-09-15T21:28:26.120Z,9.66
2017-09-15T21:30:51.923Z,9.51
2017-09-15T21:33:17.684Z,9.39
2017-09-15T21:35:43.510Z,9.36
2017-09-15T21:38:09.239Z,9.39
2017-09-15T21:40:35.152Z,9.39
2017-09-15T21:43:00.899Z,9.23
2017-09-15T21:45:26.662Z,9.23
2017-09-15T21:47:52.604Z,9.22
2017-09-15T21:50:18.355Z,9.04
2017-09-15T21:52:44.125Z,9.14
2017-09-15T21:55:09.962Z,9.01
2017-09-15T21:57:35.795Z,9.10
2017-09-15T22:00:01.606Z,9.09
2017-09-15T22:02:27.396Z,9.13
2017-09-15T22:04:53.148Z,8.93
2017-09-15T22:07:18.987Z,8.87
2017-09-15T22:09:45.031Z,8.95
2017-09-15T22:12:11.072Z,8.85
2017-09-15T22:14:36.819Z,8.70
2017-09-15T22:17:02.620Z,8.39
2017-09-15T22:19:28.399Z,8.25
2017-09-15T22:21:54.175Z,8.47
2017-09-15T22:24:19.951Z,8.63
2017-09-15T22:26:46.459Z,8.72
2017-09-15T22:29:12.223Z,8.66
2017-09-15T22:31:38.117Z,8.72
2017-09-15T22:34:03.900Z,8.72
2017-09-15T22:36:29.679Z,8.68
2017-09-15T22:38:55.462Z,8.67
2017-09-15T22:41:21.210Z,8.55
2017-09-15T22:43:46.994Z,8.28
2017-09-15T22:46:12.843Z,8.48
2017-09-15T22:48:38.590Z,8.41
2017-09-15T22:51:04.386Z,8.48
2017-09-15T22:53:30.183Z,8.46
2017-09-15T22:55:55.956Z,8.32
2017-09-15T22:58:21.783Z,8.38
2017-09-15T23:00:47.546Z,8.28
2017-09-15T23:03:13.286Z,8.32
2017-09-15T23:05:39.054Z,8.36
2017-09-15T23:08:04.835Z,8.33
2017-09-15T23:10:30.604Z,8.38
2017-09-15T23:12:56.399Z,8.28
2017-09-15T23:15:22.198Z,8.20
2017-09-15T23:17:47.964Z,8.25
2017-09-15T23:20:14.795Z,7.81
2017-09-15T23:22:40.579Z,7.82
2017-09-15T23:25:07.195Z,7.95
2017-09-15T23:27:33.019Z,8.12
2017-09-15T23:29:58.775Z,8.16
2017-09-15T23:32:24.528Z,8.01
2017-09-15T23:34:50.318Z,7.85
2017-09-15T23:37:16.083Z,7.93
2017-09-15T23:39:43.310Z,7.92
2017-09-15T23:42:09.104Z,7.79
2017-09-15T23:44:34.863Z,7.64
2017-09-15T23:47:00.608Z,7.70
2017-09-15T23:49:26.410Z,7.72
2017-09-15T23:51:52.171Z,7.76
2017-09-15T23:54:17.947Z,7.79
2017-09-15T23:56:44.090Z,7.76
2017-09-15T23:59:09.946Z,7.81
